createdAt,value
2022-12-15T00:02:05.100Z,91.83
2022-12-15T00:04:50.164Z,92.33
2022-12-15T00:07:34.958Z,92.44
2022-12-15T00:10:19.751Z,91.83
2022-12-15T00:13:04.445Z,92.59
2022-12-15T00:15:49.101Z,92.47
2022-12-15T00:18:34.036Z,92.72
2022-12-15T00:21:19.287Z,92.74
2022-12-15T00:24:04.193Z,92.97
2022-12-15T00:26:49.389Z,92.52
2022-12-15T00:29:34.776Z,92.19
2022-12-15T00:32:19.619Z,92.13
2022-12-15T00:35:04.534Z,92.00
2022-12-15T00:37:49.455Z,92.36
2022-12-15T00:40:16.027Z,93.02
2022-12-15T00:42:42.476Z,92.71
2022-12-15T00:45:09.293Z,92.64
2022-12-15T00:47:36.488Z,92.55
2022-12-15T00:50:22.246Z,92.24
2022-12-15T00:53:07.057Z,92.90
2022-12-15T00:55:51.776Z,93.08
2022-12-15T00:58:36.658Z,92.32
2022-12-15T01:01:26.738Z,92.20
2022-12-15T01:04:12.031Z,92.01
2022-12-15T01:06:57.069Z,92.05
2022-12-15T01:09:42.379Z,92.29
2022-12-15T01:12:27.231Z,92.46
2022-12-15T01:15:11.971Z,92.24
2022-12-15T01:17:56.888Z,93.48
2022-12-15T01:20:23.334Z,92.26
2022-12-15T01:22:53.035Z,93.04
2022-12-15T01:25:22.094Z,92.75
2022-12-15T01:27:49.365Z,92.84
2022-12-15T01:30:18.912Z,92.41
2022-12-15T01:32:46.311Z,93.12
2022-12-15T01:35:13.410Z,92.48
2022-12-15T01:37:40.018Z,92.93
2022-12-15T01:40:27.770Z,93.35
2022-12-15T01:42:54.178Z,92.47
2022-12-15T01:45:45.022Z,92.70
2022-12-15T01:48:14.995Z,92.66
2022-12-15T01:50:46.859Z,93.18
2022-12-15T01:53:14.192Z,92.79
2022-12-15T01:55:44.217Z,93.70
2022-12-15T01:58:16.784Z,93.26
2022-12-15T02:00:43.611Z,93.35
2022-12-15T02:03:11.968Z,92.53
2022-12-15T02:05:41.285Z,93.08
2022-12-15T02:08:09.492Z,92.72
2022-12-15T02:10:56.379Z,93.49
2022-12-15T02:13:39.419Z,93.19
2022-12-15T02:16:20.685Z,92.77
2022-12-15T02:19:26.005Z,92.51
2022-12-15T02:22:07.568Z,93.13
2022-12-15T02:25:06.497Z,93.04
2022-12-15T02:27:51.664Z,93.19
2022-12-15T02:30:35.748Z,93.15
2022-12-15T02:33:11.531Z,93.79
2022-12-15T02:35:56.421Z,93.12
2022-12-15T02:38:38.439Z,93.50
2022-12-15T02:41:26.589Z,93.83
2022-12-15T02:43:52.991Z,93.04
2022-12-15T02:46:27.903Z,93.56
2022-12-15T02:49:18.358Z,92.47
2022-12-15T02:51:59.782Z,93.57
2022-12-15T02:54:29.126Z,93.29
2022-12-15T02:57:38.103Z,93.40
2022-12-15T03:00:10.566Z,92.55
2022-12-15T03:02:41.860Z,92.99
2022-12-15T03:05:09.317Z,93.18
2022-12-15T03:07:35.756Z,93.74
2022-12-15T03:10:05.123Z,92.85
2022-12-15T03:12:31.716Z,93.38
2022-12-15T03:14:58.138Z,93.28
2022-12-15T03:17:24.758Z,93.70
2022-12-15T03:19:51.219Z,93.77
2022-12-15T03:22:17.679Z,93.55
2022-12-15T03:24:44.037Z,93.12
2022-12-15T03:27:10.642Z,93.33
2022-12-15T03:29:37.041Z,94.26
2022-12-15T03:32:03.669Z,93.94
2022-12-15T03:34:30.171Z,93.22
2022-12-15T03:36:56.781Z,93.31
2022-12-15T03:39:23.247Z,93.16
2022-12-15T03:41:49.806Z,93.80
2022-12-15T03:44:16.359Z,93.65
2022-12-15T03:46:42.719Z,94.07
2022-12-15T03:49:09.167Z,93.73
2022-12-15T03:51:35.582Z,93.10
2022-12-15T03:54:01.921Z,94.25
2022-12-15T03:56:28.379Z,93.58
2022-12-15T03:58:54.779Z,93.66
2022-12-15T04:01:21.296Z,94.21
2022-12-15T04:03:47.906Z,93.69
2022-12-15T04:06:14.303Z,94.05
2022-12-15T04:08:40.722Z,93.20
2022-12-15T04:11:07.099Z,93.72
2022-12-15T04:13:33.972Z,93.54
2022-12-15T04:16:04.466Z,93.79
2022-12-15T04:18:30.851Z,94.25
2022-12-15T04:20:57.594Z,93.36
2022-12-15T04:23:24.350Z,93.78
2022-12-15T04:26:09.384Z,94.37
2022-12-15T04:28:55.393Z,93.82
2022-12-15T04:31:47.138Z,94.51
2022-12-15T04:34:36.579Z,94.35
2022-12-15T04:37:21.412Z,94.33
2022-12-15T04:40:08.654Z,93.97
2022-12-15T04:42:56.058Z,94.41
2022-12-15T04:45:43.519Z,93.84
2022-12-15T04:48:28.875Z,94.48
2022-12-15T04:51:14.391Z,94.53
2022-12-15T04:54:02.128Z,94.55
2022-12-15T04:56:47.468Z,94.79
2022-12-15T04:59:35.289Z,95.12
2022-12-15T05:02:20.321Z,94.12
2022-12-15T05:05:05.564Z,94.07
2022-12-15T05:07:50.347Z,94.83
2022-12-15T05:10:35.666Z,94.41
2022-12-15T05:13:25.205Z,94.74
2022-12-15T05:16:10.271Z,94.99
2022-12-15T05:18:55.441Z,95.21
2022-12-15T05:21:40.255Z,94.43
2022-12-15T05:24:25.690Z,94.47
2022-12-15T05:27:11.052Z,95.33
2022-12-15T05:29:55.661Z,94.40
2022-12-15T05:32:22.073Z,95.07
2022-12-15T05:34:48.500Z,94.81
2022-12-15T05:37:15.147Z,95.85
2022-12-15T05:39:42.166Z,95.13
2022-12-15T05:42:08.613Z,95.61
2022-12-15T05:44:35.005Z,95.17
2022-12-15T05:47:01.395Z,94.96
2022-12-15T05:49:27.840Z,95.10
2022-12-15T05:51:54.416Z,95.48
2022-12-15T05:54:20.956Z,95.72
2022-12-15T05:56:50.507Z,95.07
2022-12-15T05:59:17.772Z,95.13
2022-12-15T06:01:44.268Z,95.37
2022-12-15T06:04:12.741Z,95.22
2022-12-15T06:06:39.967Z,95.19
2022-12-15T06:09:08.463Z,95.08
2022-12-15T06:11:34.947Z,95.68
2022-12-15T06:14:01.345Z,95.89
2022-12-15T06:16:30.398Z,95.31
2022-12-15T06:19:00.343Z,96.19
2022-12-15T06:21:30.216Z,95.78
2022-12-15T06:23:57.228Z,95.91
2022-12-15T06:26:33.847Z,95.72
2022-12-15T06:29:04.573Z,95.25
2022-12-15T06:31:32.600Z,95.60
2022-12-15T06:34:02.418Z,96.23
2022-12-15T06:36:30.629Z,95.87
2022-12-15T06:39:02.126Z,95.26
2022-12-15T06:41:32.197Z,95.45
2022-12-15T06:43:59.923Z,95.99
2022-12-15T06:46:28.652Z,95.71
2022-12-15T06:48:55.399Z,96.07
2022-12-15T06:51:21.874Z,96.40
2022-12-15T06:53:54.040Z,95.30
2022-12-15T06:56:34.376Z,96.41
2022-12-15T06:59:03.468Z,95.26
2022-12-15T07:01:30.827Z,95.52
2022-12-15T07:03:59.955Z,96.25
2022-12-15T07:06:27.447Z,95.79
2022-12-15T07:08:56.470Z,95.69
2022-12-15T07:11:23.706Z,95.67
2022-12-15T07:13:51.507Z,96.54
2022-12-15T07:16:18.089Z,95.33
2022-12-15T07:18:44.579Z,95.75
2022-12-15T07:21:11.573Z,96.48
2022-12-15T07:23:55.899Z,96.15
2022-12-15T07:26:24.146Z,95.62
2022-12-15T07:28:50.782Z,96.21
2022-12-15T07:31:17.685Z,95.78
2022-12-15T07:33:44.360Z,95.86
2022-12-15T07:36:11.007Z,95.94
2022-12-15T07:38:37.617Z,96.23
2022-12-15T07:41:05.938Z,96.23
2022-12-15T07:43:32.935Z,96.29
2022-12-15T07:46:00.293Z,96.61
2022-12-15T07:48:27.378Z,96.12
2022-12-15T07:51:02.775Z,95.94
2022-12-15T07:53:34.224Z,96.79
2022-12-15T07:56:09.670Z,97.00
2022-12-15T07:58:37.868Z,96.01
2022-12-15T08:01:12.337Z,96.52
2022-12-15T08:03:40.013Z,96.96
2022-12-15T08:06:10.003Z,96.52
2022-12-15T08:08:37.042Z,97.09
2022-12-15T08:11:08.233Z,97.01
2022-12-15T08:16:21.909Z,96.93
2022-12-15T08:18:48.904Z,96.58
2022-12-15T08:21:15.550Z,96.49
2022-12-15T08:23:42.079Z,96.68
2022-12-15T08:26:11.824Z,96.81
2022-12-15T08:28:39.746Z,97.19
2022-12-15T08:31:08.786Z,96.83
2022-12-15T08:33:36.090Z,97.23
2022-12-15T08:36:05.962Z,97.08
2022-12-15T08:38:33.359Z,97.69
2022-12-15T08:41:10.818Z,97.03
2022-12-15T08:43:42.585Z,98.00
2022-12-15T08:46:12.899Z,97.74
2022-12-15T08:48:39.978Z,97.39
2022-12-15T08:51:06.869Z,97.71
2022-12-15T08:53:33.396Z,97.93
2022-12-15T08:56:08.822Z,97.67
2022-12-15T08:58:35.333Z,98.53
2022-12-15T09:01:04.283Z,98.19
2022-12-15T09:03:31.096Z,98.26
2022-12-15T09:06:05.481Z,98.10
2022-12-15T09:08:32.794Z,98.72
2022-12-15T09:11:00.154Z,98.54
2022-12-15T09:13:27.247Z,99.20
2022-12-15T09:16:13.146Z,98.55
2022-12-15T09:18:42.472Z,99.42
2022-12-15T09:21:09.401Z,98.71
2022-12-15T09:23:36.823Z,99.04
2022-12-15T09:26:14.196Z,99.37
2022-12-15T09:28:41.390Z,99.67
2022-12-15T09:31:14.236Z,98.25
2022-12-15T09:33:41.872Z,99.54
2022-12-15T09:36:09.220Z,99.24
2022-12-15T09:38:40.987Z,98.68
2022-12-15T09:41:13.539Z,99.16
2022-12-15T09:43:50.628Z,98.71
2022-12-15T09:46:42.301Z,98.40
2022-12-15T09:49:21.569Z,98.40
2022-12-15T09:52:01.047Z,98.95
2022-12-15T09:54:33.862Z,98.73
2022-12-15T09:57:08.256Z,99.38
2022-12-15T09:59:57.865Z,98.48
2022-12-15T10:02:33.457Z,98.01
2022-12-15T10:05:21.671Z,98.81
2022-12-15T10:07:50.571Z,98.50
2022-12-15T10:10:29.868Z,98.53
2022-12-15T10:16:00.759Z,99.08
2022-12-15T10:18:35.229Z,98.40
2022-12-15T10:21:02.362Z,98.13
2022-12-15T10:23:29.389Z,98.32
2022-12-15T10:26:19.216Z,98.33
2022-12-15T10:29:11.666Z,98.69
2022-12-15T10:31:54.702Z,97.66
2022-12-15T10:34:25.792Z,97.95
2022-12-15T10:36:53.597Z,98.41
2022-12-15T10:39:21.131Z,98.35
2022-12-15T10:42:21.296Z,98.55
2022-12-15T10:44:51.539Z,97.29
2022-12-15T10:47:20.612Z,96.99
2022-12-15T10:49:48.537Z,95.68
2022-12-15T10:52:28.224Z,95.51
2022-12-15T10:54:55.904Z,95.46
2022-12-15T10:57:28.116Z,95.36
2022-12-15T11:00:00.581Z,95.37
2022-12-15T11:02:33.541Z,95.97
2022-12-15T11:05:15.474Z,96.51
2022-12-15T11:07:49.281Z,96.67
2022-12-15T11:10:24.825Z,96.03
2022-12-15T11:13:00.447Z,96.56
2022-12-15T11:15:38.842Z,96.58
2022-12-15T11:18:12.861Z,95.72
2022-12-15T11:20:54.802Z,95.76
2022-12-15T11:23:37.941Z,96.59
2022-12-15T11:26:22.558Z,96.16
2022-12-15T11:28:56.361Z,96.13
2022-12-15T11:31:36.994Z,95.97
2022-12-15T11:34:11.060Z,95.79
2022-12-15T11:37:24.005Z,95.56
2022-12-15T11:39:56.403Z,96.10
2022-12-15T11:42:47.921Z,95.41
2022-12-15T11:45:30.467Z,95.01
2022-12-15T11:48:14.980Z,96.19
2022-12-15T11:50:57.193Z,95.68
2022-12-15T11:53:32.764Z,94.83
2022-12-15T11:56:15.853Z,95.20
2022-12-15T11:59:20.914Z,94.62
2022-12-15T12:02:13.252Z,94.67
2022-12-15T12:05:15.415Z,94.35
2022-12-15T12:08:06.990Z,95.69
2022-12-15T12:11:02.523Z,95.13
2022-12-15T12:13:42.883Z,94.72
2022-12-15T12:16:27.857Z,94.37
2022-12-15T12:19:01.005Z,94.14
2022-12-15T12:21:35.815Z,95.10
2022-12-15T12:24:23.993Z,94.69
2022-12-15T12:27:02.735Z,94.95
2022-12-15T12:29:43.116Z,95.52
2022-12-15T12:32:21.413Z,95.52
2022-12-15T12:34:47.914Z,94.37
2022-12-15T12:37:35.740Z,94.72
2022-12-15T12:40:16.673Z,94.35
2022-12-15T12:42:53.314Z,94.14
2022-12-15T12:45:24.136Z,94.26
2022-12-15T12:47:54.333Z,94.21
2022-12-15T12:50:23.900Z,93.93
2022-12-15T12:52:55.038Z,93.74
2022-12-15T12:55:26.207Z,94.02
2022-12-15T12:57:54.322Z,94.10
2022-12-15T13:00:27.163Z,94.32
2022-12-15T13:03:10.365Z,94.87
2022-12-15T13:05:38.552Z,94.88
2022-12-15T13:08:08.190Z,93.91
2022-12-15T13:10:43.153Z,94.32
2022-12-15T13:13:18.716Z,94.42
2022-12-15T13:18:57.188Z,94.62
2022-12-15T13:21:51.216Z,95.11
2022-12-15T13:24:41.677Z,94.84
2022-12-15T13:27:17.316Z,94.88
2022-12-15T13:30:08.107Z,94.71
2022-12-15T13:32:57.778Z,95.60
2022-12-15T13:35:31.424Z,95.48
2022-12-15T13:38:03.085Z,95.21
2022-12-15T13:40:35.654Z,95.61
2022-12-15T13:43:05.131Z,95.90
2022-12-15T13:45:36.663Z,95.72
2022-12-15T13:48:32.475Z,95.23
2022-12-15T13:51:21.822Z,95.96
2022-12-15T13:53:56.122Z,95.74
2022-12-15T13:56:50.860Z,96.11
2022-12-15T13:59:39.748Z,96.74
2022-12-15T14:02:31.037Z,95.39
2022-12-15T14:05:13.171Z,96.83
2022-12-15T14:07:54.377Z,96.06
2022-12-15T14:10:27.626Z,97.06
2022-12-15T14:12:57.684Z,96.27
2022-12-15T14:15:31.870Z,96.27
2022-12-15T14:18:01.653Z,96.44
2022-12-15T14:20:32.361Z,97.49
2022-12-15T14:22:59.031Z,96.96
2022-12-15T14:25:29.416Z,97.11
2022-12-15T14:27:56.887Z,96.45
2022-12-15T14:30:33.128Z,97.07
2022-12-15T14:33:07.032Z,97.57
2022-12-15T14:35:42.205Z,97.67
2022-12-15T14:38:17.542Z,97.04
2022-12-15T14:40:49.193Z,97.20
2022-12-15T14:43:24.817Z,97.46
2022-12-15T14:45:56.674Z,97.84
2022-12-15T14:48:41.092Z,97.75
2022-12-15T14:51:12.423Z,97.40
2022-12-15T14:53:41.803Z,98.08
2022-12-15T14:56:30.099Z,98.00
2022-12-15T14:59:18.851Z,98.11
2022-12-15T15:02:10.992Z,97.61
2022-12-15T15:03:10.904Z,98.21
2022-12-15T15:03:16.375Z,94.81
2022-12-15T15:04:37.557Z,97.58
2022-12-15T15:07:17.606Z,98.02
2022-12-15T15:09:46.196Z,98.94
2022-12-15T15:12:21.840Z,99.12
2022-12-15T15:14:51.512Z,98.07
2022-12-15T15:17:25.666Z,98.09
2022-12-15T15:19:57.354Z,99.22
2022-12-15T15:22:41.012Z,99.10
2022-12-15T15:25:45.189Z,98.60
2022-12-15T15:28:13.675Z,98.37
2022-12-15T15:30:43.408Z,99.12
2022-12-15T15:33:10.677Z,99.44
2022-12-15T15:35:37.467Z,98.53
2022-12-15T15:38:23.157Z,99.43
2022-12-15T15:41:01.244Z,99.19
2022-12-15T15:43:28.825Z,98.76
2022-12-15T15:46:01.703Z,99.59
2022-12-15T15:48:47.850Z,99.79
2022-12-15T15:51:15.898Z,99.50
2022-12-15T15:53:42.650Z,98.97
2022-12-15T15:56:15.451Z,99.77
2022-12-15T15:58:46.596Z,99.57
2022-12-15T16:01:13.904Z,99.65
2022-12-15T16:03:41.416Z,99.20
2022-12-15T16:06:16.815Z,99.87
2022-12-15T16:08:44.017Z,99.75
2022-12-15T16:11:12.235Z,100.00
2022-12-15T16:13:39.236Z,99.63
2022-12-15T16:16:06.688Z,99.80
2022-12-15T16:18:33.630Z,100.00
2022-12-15T16:21:00.472Z,99.93
2022-12-15T16:23:29.264Z,99.42
2022-12-15T16:26:00.335Z,100.00
2022-12-15T16:28:29.516Z,100.00
2022-12-15T16:30:58.748Z,99.36
2022-12-15T16:33:25.589Z,99.85
2022-12-15T16:35:52.194Z,99.61
2022-12-15T16:38:25.620Z,98.96
2022-12-15T16:40:53.011Z,100.00
2022-12-15T16:43:24.061Z,99.58
2022-12-15T16:45:53.847Z,100.00
2022-12-15T16:48:20.912Z,100.00
2022-12-15T16:50:52.201Z,99.42
2022-12-15T16:53:30.501Z,99.88
2022-12-15T16:55:59.139Z,99.38
2022-12-15T16:58:27.059Z,100.00
2022-12-15T17:00:53.898Z,100.00
2022-12-15T17:03:26.688Z,100.00
2022-12-15T17:05:56.028Z,99.57
2022-12-15T17:08:54.172Z,99.34
2022-12-15T17:11:24.290Z,100.00
2022-12-15T17:13:53.645Z,100.00
2022-12-15T17:16:22.431Z,100.00
2022-12-15T17:18:49.934Z,100.00
2022-12-15T17:21:47.494Z,99.73
2022-12-15T17:24:17.845Z,99.73
2022-12-15T17:26:44.599Z,99.44
2022-12-15T17:29:18.030Z,99.76
2022-12-15T17:31:44.513Z,100.00
2022-12-15T17:34:27.587Z,99.84
2022-12-15T17:36:55.247Z,99.63
2022-12-15T17:39:22.789Z,100.00
2022-12-15T17:41:59.762Z,99.33
2022-12-15T17:44:36.184Z,99.97
2022-12-15T17:47:05.687Z,99.83
2022-12-15T17:49:36.245Z,99.50
2022-12-15T17:52:07.122Z,100.00
2022-12-15T17:54:33.685Z,99.35
2022-12-15T17:57:00.224Z,99.85
2022-12-15T17:59:26.674Z,100.00
2022-12-15T18:01:56.753Z,99.94
2022-12-15T18:04:23.278Z,100.00
2022-12-15T18:06:49.714Z,99.72
2022-12-15T18:09:17.848Z,99.53
2022-12-15T18:11:46.701Z,100.00
2022-12-15T18:14:15.987Z,99.89
2022-12-15T18:16:43.201Z,99.95
2022-12-15T18:19:09.646Z,100.00
2022-12-15T18:21:36.865Z,99.56
2022-12-15T18:24:03.967Z,99.73
2022-12-15T18:26:37.659Z,100.00
2022-12-15T18:29:12.785Z,100.00
2022-12-15T18:31:39.563Z,100.00
2022-12-15T18:34:15.437Z,100.00
2022-12-15T18:36:41.934Z,100.00
2022-12-15T18:39:18.098Z,99.77
2022-12-15T18:41:44.698Z,100.00
2022-12-15T18:44:20.920Z,100.00
2022-12-15T18:46:48.260Z,99.83
2022-12-15T18:49:14.946Z,100.00
2022-12-15T18:51:41.358Z,100.00
2022-12-15T18:54:16.599Z,100.00
2022-12-15T18:56:43.001Z,100.00
2022-12-15T18:59:17.284Z,100.00
2022-12-15T19:01:47.368Z,100.00
2022-12-15T19:04:14.879Z,100.00
2022-12-15T19:06:41.932Z,100.00
2022-12-15T19:09:17.066Z,100.00
2022-12-15T19:12:15.981Z,100.00
2022-12-15T19:14:43.246Z,100.00
2022-12-15T19:17:38.102Z,100.00
2022-12-15T19:20:35.551Z,100.00
2022-12-15T19:23:03.596Z,100.00
2022-12-15T19:25:31.594Z,100.00
2022-12-15T19:27:59.968Z,100.00
2022-12-15T19:30:38.495Z,100.00
2022-12-15T19:33:08.622Z,100.00
2022-12-15T19:35:37.106Z,100.00
2022-12-15T19:38:04.687Z,100.00
2022-12-15T19:40:32.955Z,100.00
2022-12-15T19:43:00.990Z,100.00
2022-12-15T19:45:31.676Z,100.00
2022-12-15T19:48:00.057Z,100.00
2022-12-15T19:50:36.392Z,100.00
2022-12-15T19:53:10.031Z,100.00
2022-12-15T19:55:38.724Z,100.00
2022-12-15T19:58:31.164Z,100.00
2022-12-15T20:01:01.423Z,100.00
2022-12-15T20:03:29.888Z,100.00
2022-12-15T20:06:01.092Z,100.00
2022-12-15T20:08:32.901Z,99.88
2022-12-15T20:10:59.753Z,100.00
2022-12-15T20:13:26.631Z,100.00
2022-12-15T20:15:55.087Z,100.00
2022-12-15T20:18:21.622Z,100.00
2022-12-15T20:20:49.339Z,100.00
2022-12-15T20:23:18.477Z,100.00
2022-12-15T20:25:45.277Z,100.00
2022-12-15T20:28:21.579Z,100.00
2022-12-15T20:30:48.948Z,99.17
2022-12-15T20:33:15.646Z,99.88
2022-12-15T20:35:44.233Z,99.98
2022-12-15T20:38:30.165Z,100.00
2022-12-15T20:40:56.786Z,99.40
2022-12-15T20:43:25.198Z,99.54
2022-12-15T20:46:01.080Z,99.68
2022-12-15T20:48:29.968Z,99.85
2022-12-15T20:50:57.676Z,99.56
2022-12-15T20:53:26.029Z,98.81
2022-12-15T20:55:54.165Z,98.55
2022-12-15T20:58:21.257Z,98.94
2022-12-15T21:00:49.041Z,99.12
2022-12-15T21:03:31.011Z,99.04
2022-12-15T21:05:58.789Z,98.97
2022-12-15T21:08:27.989Z,98.33
2022-12-15T21:10:59.448Z,98.11
2022-12-15T21:13:30.287Z,97.92
2022-12-15T21:15:57.072Z,99.00
2022-12-15T21:21:18.788Z,98.22
2022-12-15T21:23:45.635Z,98.44
2022-12-15T21:26:13.481Z,98.44
2022-12-15T21:28:39.888Z,97.86
2022-12-15T21:31:06.359Z,98.38
2022-12-15T21:33:33.064Z,98.62
2022-12-15T21:35:59.785Z,98.24
2022-12-15T21:38:36.469Z,99.01
2022-12-15T21:41:06.066Z,99.16
2022-12-15T21:43:35.223Z,98.14
2022-12-15T21:46:03.752Z,99.03
2022-12-15T21:48:48.566Z,98.71
2022-12-15T21:51:17.036Z,98.21
2022-12-15T21:53:45.632Z,98.37
2022-12-15T21:56:18.866Z,98.33
2022-12-15T21:58:48.900Z,99.05
2022-12-15T22:01:18.352Z,99.12
2022-12-15T22:03:50.528Z,98.32
2022-12-15T22:06:19.541Z,98.25
2022-12-15T22:08:46.087Z,98.70
2022-12-15T22:11:24.654Z,98.22
2022-12-15T22:13:53.286Z,98.71
2022-12-15T22:16:22.508Z,98.81
2022-12-15T22:18:51.830Z,98.30
2022-12-15T22:21:18.338Z,99.09
2022-12-15T22:23:45.099Z,98.65
2022-12-15T22:26:22.755Z,99.05
2022-12-15T22:28:51.057Z,98.37
2022-12-15T22:31:18.565Z,97.75
2022-12-15T22:33:45.043Z,97.43
2022-12-15T22:36:11.533Z,97.83
2022-12-15T22:38:37.995Z,98.11
2022-12-15T22:41:06.700Z,98.27
2022-12-15T22:43:40.056Z,97.84
2022-12-15T22:46:09.600Z,98.45
2022-12-15T22:48:41.423Z,98.38
2022-12-15T22:51:13.084Z,97.86
2022-12-15T22:53:39.838Z,97.73
2022-12-15T22:56:21.140Z,97.97
2022-12-15T22:58:50.229Z,98.32
2022-12-15T23:01:18.720Z,98.75
2022-12-15T23:03:45.247Z,98.98
2022-12-15T23:06:11.746Z,98.65
2022-12-15T23:08:38.218Z,97.99
2022-12-15T23:11:23.316Z,98.40
2022-12-15T23:13:49.715Z,99.04
2022-12-15T23:16:22.997Z,98.57
2022-12-15T23:18:54.730Z,99.19
2022-12-15T23:21:22.375Z,98.81
2022-12-15T23:23:49.104Z,99.19
2022-12-15T23:26:16.595Z,98.53
2022-12-15T23:28:43.551Z,99.38
2022-12-15T23:31:10.581Z,99.58
2022-12-15T23:33:41.635Z,98.99
2022-12-15T23:36:09.738Z,98.64
2022-12-15T23:38:36.435Z,98.69
2022-12-15T23:41:02.877Z,99.31
2022-12-15T23:43:32.287Z,98.92
2022-12-15T23:46:07.663Z,98.93
2022-12-15T23:48:38.281Z,99.54
2022-12-15T23:51:17.173Z,99.06
2022-12-15T23:53:45.369Z,99.71
2022-12-15T23:56:17.675Z,99.84
2022-12-15T23:58:45.136Z,100.00
